sensor_id;sensor_type;location;lat;lon;timestamp;temperature;humidity
66401;HTU21D;53211;45.040;38.788;2022-10-16T00:01:24;10.92;63.95
66401;HTU21D;53211;45.040;38.788;2022-10-16T00:03:50;10.90;63.92
66401;HTU21D;53211;45.040;38.788;2022-10-16T00:06:17;10.89;64.06
66401;HTU21D;53211;45.040;38.788;2022-10-16T00:08:44;10.87;64.09
66401;HTU21D;53211;45.040;38.788;2022-10-16T00:11:17;10.85;64.06
66401;HTU21D;53211;45.040;38.788;2022-10-16T00:13:44;10.85;64.05
66401;HTU21D;53211;45.040;38.788;2022-10-16T00:16:12;10.82;64.12
66401;HTU21D;53211;45.040;38.788;2022-10-16T00:18:38;10.80;64.14
66401;HTU21D;53211;45.040;38.788;2022-10-16T00:21:10;10.79;64.14
66401;HTU21D;53211;45.040;38.788;2022-10-16T00:23:57;10.75;64.14
66401;HTU21D;53211;45.040;38.788;2022-10-16T00:26:24;10.73;64.19
66401;HTU21D;53211;45.040;38.788;2022-10-16T00:28:51;10.69;64.27
66401;HTU21D;53211;45.040;38.788;2022-10-16T00:31:19;10.67;64.30
66401;HTU21D;53211;45.040;38.788;2022-10-16T00:33:45;10.64;64.39
66401;HTU21D;53211;45.040;38.788;2022-10-16T00:36:12;10.63;64.51
66401;HTU21D;53211;45.040;38.788;2022-10-16T00:38:38;10.62;64.53
66401;HTU21D;53211;45.040;38.788;2022-10-16T00:41:05;10.60;64.53
66401;HTU21D;53211;45.040;38.788;2022-10-16T00:45:58;10.58;64.52
66401;HTU21D;53211;45.040;38.788;2022-10-16T00:48:23;10.56;64.56
66401;HTU21D;53211;45.040;38.788;2022-10-16T00:50:49;10.53;64.60
66401;HTU21D;53211;45.040;38.788;2022-10-16T00:53:16;10.52;64.59
66401;HTU21D;53211;45.040;38.788;2022-10-16T00:55:43;10.45;64.50
66401;HTU21D;53211;45.040;38.788;2022-10-16T00:58:09;10.38;64.45
66401;HTU21D;53211;45.040;38.788;2022-10-16T01:00:35;10.33;64.41
66401;HTU21D;53211;45.040;38.788;2022-10-16T01:03:02;10.23;64.41
66401;HTU21D;53211;45.040;38.788;2022-10-16T01:05:30;10.15;64.47
66401;HTU21D;53211;45.040;38.788;2022-10-16T01:10:39;10.03;64.69
66401;HTU21D;53211;45.040;38.788;2022-10-16T01:13:21;10.00;64.88
66401;HTU21D;53211;45.040;38.788;2022-10-16T01:16:07;10.01;65.07
66401;HTU21D;53211;45.040;38.788;2022-10-16T01:18:43;10.04;65.11
66401;HTU21D;53211;45.040;38.788;2022-10-16T01:21:26;10.06;65.13
66401;HTU21D;53211;45.040;38.788;2022-10-16T01:29:56;10.12;65.27
66401;HTU21D;53211;45.040;38.788;2022-10-16T01:32:33;10.19;65.41
66401;HTU21D;53211;45.040;38.788;2022-10-16T01:35:05;10.21;65.43
66401;HTU21D;53211;45.040;38.788;2022-10-16T01:37:44;10.23;65.39
66401;HTU21D;53211;45.040;38.788;2022-10-16T01:40:15;10.26;65.39
66401;HTU21D;53211;45.040;38.788;2022-10-16T01:42:47;10.27;65.40
66401;HTU21D;53211;45.040;38.788;2022-10-16T01:45:15;10.29;65.40
66401;HTU21D;53211;45.040;38.788;2022-10-16T01:47:44;10.28;65.35
66401;HTU21D;53211;45.040;38.788;2022-10-16T01:50:12;10.28;65.30
66401;HTU21D;53211;45.040;38.788;2022-10-16T01:52:43;10.27;65.35
66401;HTU21D;53211;45.040;38.788;2022-10-16T01:55:12;10.27;65.43
66401;HTU21D;53211;45.040;38.788;2022-10-16T01:57:42;10.28;65.63
66401;HTU21D;53211;45.040;38.788;2022-10-16T02:00:12;10.29;65.65
66401;HTU21D;53211;45.040;38.788;2022-10-16T02:02:45;10.31;65.62
66401;HTU21D;53211;45.040;38.788;2022-10-16T02:07:49;10.34;65.70
66401;HTU21D;53211;45.040;38.788;2022-10-16T02:10:16;10.37;65.72
66401;HTU21D;53211;45.040;38.788;2022-10-16T02:12:48;10.37;65.69
66401;HTU21D;53211;45.040;38.788;2022-10-16T02:15:15;10.37;65.72
66401;HTU21D;53211;45.040;38.788;2022-10-16T02:17:41;10.38;65.81
66401;HTU21D;53211;45.040;38.788;2022-10-16T02:20:09;10.37;65.81
66401;HTU21D;53211;45.040;38.788;2022-10-16T02:22:42;10.36;65.78
66401;HTU21D;53211;45.040;38.788;2022-10-16T02:25:33;10.36;65.89
66401;HTU21D;53211;45.040;38.788;2022-10-16T02:28:07;10.36;65.90
66401;HTU21D;53211;45.040;38.788;2022-10-16T02:33:15;10.36;65.91
66401;HTU21D;53211;45.040;38.788;2022-10-16T02:35:42;10.35;65.92
66401;HTU21D;53211;45.040;38.788;2022-10-16T02:38:09;10.36;66.01
66401;HTU21D;53211;45.040;38.788;2022-10-16T02:40:37;10.34;66.04
66401;HTU21D;53211;45.040;38.788;2022-10-16T02:43:04;10.35;66.04
66401;HTU21D;53211;45.040;38.788;2022-10-16T02:45:30;10.35;66.09
66401;HTU21D;53211;45.040;38.788;2022-10-16T02:47:57;10.34;66.07
66401;HTU21D;53211;45.040;38.788;2022-10-16T02:50:22;10.35;66.14
66401;HTU21D;53211;45.040;38.788;2022-10-16T02:52:50;10.33;66.16
66401;HTU21D;53211;45.040;38.788;2022-10-16T02:55:17;10.36;66.17
66401;HTU21D;53211;45.040;38.788;2022-10-16T02:57:43;10.35;66.23
66401;HTU21D;53211;45.040;38.788;2022-10-16T03:00:13;10.34;66.27
66401;HTU21D;53211;45.040;38.788;2022-10-16T03:02:39;10.34;66.26
66401;HTU21D;53211;45.040;38.788;2022-10-16T03:05:06;10.33;66.28
66401;HTU21D;53211;45.040;38.788;2022-10-16T03:07:32;10.33;66.34
66401;HTU21D;53211;45.040;38.788;2022-10-16T03:09:59;10.33;66.41
66401;HTU21D;53211;45.040;38.788;2022-10-16T03:12:29;10.31;66.40
66401;HTU21D;53211;45.040;38.788;2022-10-16T03:14:55;10.33;66.44
66401;HTU21D;53211;45.040;38.788;2022-10-16T03:17:22;10.33;66.53
66401;HTU21D;53211;45.040;38.788;2022-10-16T03:19:48;10.31;66.53
66401;HTU21D;53211;45.040;38.788;2022-10-16T03:22:15;10.31;66.55
66401;HTU21D;53211;45.040;38.788;2022-10-16T03:24:41;10.29;66.54
66401;HTU21D;53211;45.040;38.788;2022-10-16T03:27:07;10.29;66.62
66401;HTU21D;53211;45.040;38.788;2022-10-16T03:29:33;10.29;66.66
66401;HTU21D;53211;45.040;38.788;2022-10-16T03:31:59;10.29;66.76
66401;HTU21D;53211;45.040;38.788;2022-10-16T03:34:25;10.28;66.81
66401;HTU21D;53211;45.040;38.788;2022-10-16T03:36:51;10.28;66.84
66401;HTU21D;53211;45.040;38.788;2022-10-16T03:39:17;10.27;66.98
66401;HTU21D;53211;45.040;38.788;2022-10-16T03:41:44;10.28;66.96
66401;HTU21D;53211;45.040;38.788;2022-10-16T03:44:10;10.26;66.95
66401;HTU21D;53211;45.040;38.788;2022-10-16T03:46:36;10.25;66.95
66401;HTU21D;53211;45.040;38.788;2022-10-16T03:49:02;10.23;66.95
66401;HTU21D;53211;45.040;38.788;2022-10-16T03:51:28;10.24;67.01
66401;HTU21D;53211;45.040;38.788;2022-10-16T03:53:54;10.22;67.07
66401;HTU21D;53211;45.040;38.788;2022-10-16T03:56:20;10.22;67.10
66401;HTU21D;53211;45.040;38.788;2022-10-16T03:58:46;10.21;67.11
66401;HTU21D;53211;45.040;38.788;2022-10-16T04:01:12;10.23;67.16
66401;HTU21D;53211;45.040;38.788;2022-10-16T04:03:38;10.24;67.17
66401;HTU21D;53211;45.040;38.788;2022-10-16T04:06:04;10.26;67.23
66401;HTU21D;53211;45.040;38.788;2022-10-16T04:08:30;10.29;67.30
66401;HTU21D;53211;45.040;38.788;2022-10-16T04:10:56;10.30;67.36
66401;HTU21D;53211;45.040;38.788;2022-10-16T04:13:22;10.34;67.37
66401;HTU21D;53211;45.040;38.788;2022-10-16T04:15:47;10.36;67.48
66401;HTU21D;53211;45.040;38.788;2022-10-16T04:18:13;10.38;67.64
66401;HTU21D;53211;45.040;38.788;2022-10-16T04:20:40;10.45;67.58
66401;HTU21D;53211;45.040;38.788;2022-10-16T04:23:06;10.48;67.54
66401;HTU21D;53211;45.040;38.788;2022-10-16T04:25:32;10.52;67.52
66401;HTU21D;53211;45.040;38.788;2022-10-16T04:27:58;10.57;67.53
66401;HTU21D;53211;45.040;38.788;2022-10-16T04:30:24;10.62;67.51
66401;HTU21D;53211;45.040;38.788;2022-10-16T04:32:50;10.67;67.64
66401;HTU21D;53211;45.040;38.788;2022-10-16T04:35:19;10.72;67.66
66401;HTU21D;53211;45.040;38.788;2022-10-16T04:37:46;10.78;67.62
66401;HTU21D;53211;45.040;38.788;2022-10-16T04:40:12;10.84;67.62
66401;HTU21D;53211;45.040;38.788;2022-10-16T04:42:38;10.89;67.56
66401;HTU21D;53211;45.040;38.788;2022-10-16T04:45:05;10.95;67.52
66401;HTU21D;53211;45.040;38.788;2022-10-16T04:47:31;10.99;67.57
66401;HTU21D;53211;45.040;38.788;2022-10-16T04:49:57;11.07;67.52
66401;HTU21D;53211;45.040;38.788;2022-10-16T04:52:25;11.12;67.51
66401;HTU21D;53211;45.040;38.788;2022-10-16T04:54:51;11.17;67.48
66401;HTU21D;53211;45.040;38.788;2022-10-16T04:57:17;11.23;67.48
66401;HTU21D;53211;45.040;38.788;2022-10-16T04:59:44;11.28;67.46
66401;HTU21D;53211;45.040;38.788;2022-10-16T05:02:10;11.37;67.49
66401;HTU21D;53211;45.040;38.788;2022-10-16T05:04:36;11.43;67.47
66401;HTU21D;53211;45.040;38.788;2022-10-16T05:07:02;11.49;67.51
66401;HTU21D;53211;45.040;38.788;2022-10-16T05:09:28;11.56;67.52
66401;HTU21D;53211;45.040;38.788;2022-10-16T05:11:53;11.63;67.52
66401;HTU21D;53211;45.040;38.788;2022-10-16T05:14:19;11.70;67.69
66401;HTU21D;53211;45.040;38.788;2022-10-16T05:16:45;11.78;67.62
66401;HTU21D;53211;45.040;38.788;2022-10-16T05:19:13;11.89;67.63
66401;HTU21D;53211;45.040;38.788;2022-10-16T05:21:40;12.06;67.64
66401;HTU21D;53211;45.040;38.788;2022-10-16T05:24:06;12.25;67.56
66401;HTU21D;53211;45.040;38.788;2022-10-16T05:26:32;12.46;67.31
66401;HTU21D;53211;45.040;38.788;2022-10-16T05:28:58;12.62;67.14
66401;HTU21D;53211;45.040;38.788;2022-10-16T05:31:24;12.81;66.96
66401;HTU21D;53211;45.040;38.788;2022-10-16T05:33:50;12.97;66.91
66401;HTU21D;53211;45.040;38.788;2022-10-16T05:36:16;13.15;66.80
66401;HTU21D;53211;45.040;38.788;2022-10-16T05:38:43;13.29;66.67
66401;HTU21D;53211;45.040;38.788;2022-10-16T05:41:09;13.48;66.49
66401;HTU21D;53211;45.040;38.788;2022-10-16T05:43:35;13.66;66.40
66401;HTU21D;53211;45.040;38.788;2022-10-16T05:46:04;13.83;66.26
66401;HTU21D;53211;45.040;38.788;2022-10-16T05:48:31;13.98;66.13
66401;HTU21D;53211;45.040;38.788;2022-10-16T05:53:24;14.27;65.98
66401;HTU21D;53211;45.040;38.788;2022-10-16T05:55:55;14.43;65.92
66401;HTU21D;53211;45.040;38.788;2022-10-16T05:58:23;14.60;65.81
66401;HTU21D;53211;45.040;38.788;2022-10-16T06:00:56;14.73;65.63
66401;HTU21D;53211;45.040;38.788;2022-10-16T06:03:22;14.87;65.57
66401;HTU21D;53211;45.040;38.788;2022-10-16T06:05:49;14.98;65.50
66401;HTU21D;53211;45.040;38.788;2022-10-16T06:08:17;15.08;65.46
66401;HTU21D;53211;45.040;38.788;2022-10-16T06:10:43;15.18;65.41
66401;HTU21D;53211;45.040;38.788;2022-10-16T06:13:10;15.28;65.36
66401;HTU21D;53211;45.040;38.788;2022-10-16T06:15:37;15.38;65.36
66401;HTU21D;53211;45.040;38.788;2022-10-16T06:18:05;15.46;65.27
66401;HTU21D;53211;45.040;38.788;2022-10-16T06:20:31;15.52;65.24
66401;HTU21D;53211;45.040;38.788;2022-10-16T06:22:57;15.55;65.26
66401;HTU21D;53211;45.040;38.788;2022-10-16T06:25:24;15.60;65.28
66401;HTU21D;53211;45.040;38.788;2022-10-16T06:27:50;15.60;65.30
66401;HTU21D;53211;45.040;38.788;2022-10-16T06:30:16;15.61;65.42
66401;HTU21D;53211;45.040;38.788;2022-10-16T06:32:42;15.60;65.60
66401;HTU21D;53211;45.040;38.788;2022-10-16T06:35:08;15.60;65.73
66401;HTU21D;53211;45.040;38.788;2022-10-16T06:37:35;15.60;65.91
66401;HTU21D;53211;45.040;38.788;2022-10-16T06:40:04;15.66;66.01
66401;HTU21D;53211;45.040;38.788;2022-10-16T06:42:31;15.70;66.12
66401;HTU21D;53211;45.040;38.788;2022-10-16T06:44:57;15.76;66.49
66401;HTU21D;53211;45.040;38.788;2022-10-16T06:47:23;15.82;66.51
66401;HTU21D;53211;45.040;38.788;2022-10-16T06:49:49;15.84;66.62
66401;HTU21D;53211;45.040;38.788;2022-10-16T06:52:15;15.88;66.62
66401;HTU21D;53211;45.040;38.788;2022-10-16T06:54:41;15.93;66.78
66401;HTU21D;53211;45.040;38.788;2022-10-16T06:57:07;15.99;66.76
66401;HTU21D;53211;45.040;38.788;2022-10-16T06:59:33;16.05;66.85
66401;HTU21D;53211;45.040;38.788;2022-10-16T07:01:59;16.11;66.97
66401;HTU21D;53211;45.040;38.788;2022-10-16T07:04:26;16.19;66.91
66401;HTU21D;53211;45.040;38.788;2022-10-16T07:06:52;16.28;66.86
66401;HTU21D;53211;45.040;38.788;2022-10-16T07:09:18;16.34;66.88
66401;HTU21D;53211;45.040;38.788;2022-10-16T07:11:43;16.45;66.81
66401;HTU21D;53211;45.040;38.788;2022-10-16T07:14:16;16.58;66.69
66401;HTU21D;53211;45.040;38.788;2022-10-16T07:16:42;16.69;66.59
66401;HTU21D;53211;45.040;38.788;2022-10-16T07:19:09;16.85;66.58
66401;HTU21D;53211;45.040;38.788;2022-10-16T07:21:40;17.07;66.46
66401;HTU21D;53211;45.040;38.788;2022-10-16T07:24:12;17.34;66.27
66401;HTU21D;53211;45.040;38.788;2022-10-16T07:26:39;17.61;65.98
66401;HTU21D;53211;45.040;38.788;2022-10-16T07:29:18;17.87;65.63
66401;HTU21D;53211;45.040;38.788;2022-10-16T07:31:45;18.10;65.31
66401;HTU21D;53211;45.040;38.788;2022-10-16T07:34:12;18.26;64.95
66401;HTU21D;53211;45.040;38.788;2022-10-16T07:36:39;18.38;64.80
66401;HTU21D;53211;45.040;38.788;2022-10-16T07:39:05;18.49;64.69
66401;HTU21D;53211;45.040;38.788;2022-10-16T07:41:31;18.58;64.56
66401;HTU21D;53211;45.040;38.788;2022-10-16T07:43:58;18.65;64.45
66401;HTU21D;53211;45.040;38.788;2022-10-16T07:46:27;18.68;64.40
66401;HTU21D;53211;45.040;38.788;2022-10-16T07:48:53;18.71;64.40
66401;HTU21D;53211;45.040;38.788;2022-10-16T07:51:21;18.78;64.49
66401;HTU21D;53211;45.040;38.788;2022-10-16T07:53:48;18.80;64.36
66401;HTU21D;53211;45.040;38.788;2022-10-16T07:56:15;18.78;64.39
66401;HTU21D;53211;45.040;38.788;2022-10-16T07:58:41;18.79;64.48
66401;HTU21D;53211;45.040;38.788;2022-10-16T08:01:10;18.78;64.50
66401;HTU21D;53211;45.040;38.788;2022-10-16T08:03:36;18.77;64.39
66401;HTU21D;53211;45.040;38.788;2022-10-16T08:06:04;18.67;64.43
66401;HTU21D;53211;45.040;38.788;2022-10-16T08:08:30;18.62;64.61
66401;HTU21D;53211;45.040;38.788;2022-10-16T08:10:56;0.00;64.79
66401;HTU21D;53211;45.040;38.788;2022-10-16T08:13:22;18.65;64.90
66401;HTU21D;53211;45.040;38.788;2022-10-16T08:15:48;18.70;65.00
66401;HTU21D;53211;45.040;38.788;2022-10-16T08:18:15;18.82;64.92
66401;HTU21D;53211;45.040;38.788;2022-10-16T08:20:42;18.86;64.74
66401;HTU21D;53211;45.040;38.788;2022-10-16T08:23:10;18.83;64.62
66401;HTU21D;53211;45.040;38.788;2022-10-16T08:25:38;18.85;64.71
66401;HTU21D;53211;45.040;38.788;2022-10-16T08:28:05;18.85;64.69
66401;HTU21D;53211;45.040;38.788;2022-10-16T08:30:32;18.89;64.66
66401;HTU21D;53211;45.040;38.788;2022-10-16T08:32:58;18.92;64.61
66401;HTU21D;53211;45.040;38.788;2022-10-16T08:35:24;18.89;64.61
66401;HTU21D;53211;45.040;38.788;2022-10-16T08:37:52;18.86;64.63
66401;HTU21D;53211;45.040;38.788;2022-10-16T08:40:25;18.83;64.71
66401;HTU21D;53211;45.040;38.788;2022-10-16T08:48:48;18.98;65.04
66401;HTU21D;53211;45.040;38.788;2022-10-16T08:51:28;19.15;64.85
66401;HTU21D;53211;45.040;38.788;2022-10-16T08:56:23;19.28;64.56
66401;HTU21D;53211;45.040;38.788;2022-10-16T08:58:50;19.39;64.64
66401;HTU21D;53211;45.040;38.788;2022-10-16T09:01:19;19.59;64.47
66401;HTU21D;53211;45.040;38.788;2022-10-16T09:07:22;20.01;63.82
66401;HTU21D;53211;45.040;38.788;2022-10-16T09:18:06;20.83;63.02
66401;HTU21D;53211;45.040;38.788;2022-10-16T09:20:52;21.02;62.48
66401;HTU21D;53211;45.040;38.788;2022-10-16T09:23:30;21.11;62.24
66401;HTU21D;53211;45.040;38.788;2022-10-16T09:26:00;21.15;62.20
66401;HTU21D;53211;45.040;38.788;2022-10-16T09:28:27;21.14;62.15
66401;HTU21D;53211;45.040;38.788;2022-10-16T09:30:53;21.11;62.08
66401;HTU21D;53211;45.040;38.788;2022-10-16T09:33:23;21.05;61.98
66401;HTU21D;53211;45.040;38.788;2022-10-16T09:35:55;20.90;62.04
66401;HTU21D;53211;45.040;38.788;2022-10-16T09:38:31;20.79;62.28
66401;HTU21D;53211;45.040;38.788;2022-10-16T09:41:00;20.72;62.33
66401;HTU21D;53211;45.040;38.788;2022-10-16T09:43:35;20.64;62.34
66401;HTU21D;53211;45.040;38.788;2022-10-16T09:46:19;20.59;62.50
66401;HTU21D;53211;45.040;38.788;2022-10-16T09:48:49;20.58;62.56
66401;HTU21D;53211;45.040;38.788;2022-10-16T09:51:24;20.54;62.50
66401;HTU21D;53211;45.040;38.788;2022-10-16T09:53:55;20.53;62.63
66401;HTU21D;53211;45.040;38.788;2022-10-16T09:56:30;20.53;62.64
66401;HTU21D;53211;45.040;38.788;2022-10-16T09:59:00;20.54;62.45
66401;HTU21D;53211;45.040;38.788;2022-10-16T10:01:35;20.53;62.54
66401;HTU21D;53211;45.040;38.788;2022-10-16T10:04:03;20.57;62.71
66401;HTU21D;53211;45.040;38.788;2022-10-16T10:06:53;20.68;62.64
66401;HTU21D;53211;45.040;38.788;2022-10-16T10:11:57;20.86;62.44
66401;HTU21D;53211;45.040;38.788;2022-10-16T10:17:22;21.09;61.88
66401;HTU21D;53211;45.040;38.788;2022-10-16T10:19:56;21.17;61.83
66401;HTU21D;53211;45.040;38.788;2022-10-16T10:22:38;21.22;61.68
66401;HTU21D;53211;45.040;38.788;2022-10-16T10:25:38;21.30;61.60
66401;HTU21D;53211;45.040;38.788;2022-10-16T10:36:38;21.78;60.70
66401;HTU21D;53211;45.040;38.788;2022-10-16T10:39:32;21.92;60.68
66401;HTU21D;53211;45.040;38.788;2022-10-16T10:55:36;22.51;58.59
66401;HTU21D;53211;45.040;38.788;2022-10-16T11:01:08;22.13;59.23
66401;HTU21D;53211;45.040;38.788;2022-10-16T11:06:24;21.95;59.69
66401;HTU21D;53211;45.040;38.788;2022-10-16T11:11:49;21.76;59.70
66401;HTU21D;53211;45.040;38.788;2022-10-16T11:14:36;21.65;59.90
66401;HTU21D;53211;45.040;38.788;2022-10-16T11:20:00;21.52;60.14
66401;HTU21D;53211;45.040;38.788;2022-10-16T11:22:37;21.51;60.02
66401;HTU21D;53211;45.040;38.788;2022-10-16T11:31:08;21.54;60.07
66401;HTU21D;53211;45.040;38.788;2022-10-16T11:36:53;21.53;59.89
66401;HTU21D;53211;45.040;38.788;2022-10-16T11:39:25;21.55;59.99
66401;HTU21D;53211;45.040;38.788;2022-10-16T11:41:59;21.62;59.78
66401;HTU21D;53211;45.040;38.788;2022-10-16T11:44:48;21.61;59.61
66401;HTU21D;53211;45.040;38.788;2022-10-16T11:50:29;21.58;59.71
66401;HTU21D;53211;45.040;38.788;2022-10-16T11:55:44;21.58;59.74
66401;HTU21D;53211;45.040;38.788;2022-10-16T11:58:33;21.57;59.76
66401;HTU21D;53211;45.040;38.788;2022-10-16T12:06:29;21.59;59.73
66401;HTU21D;53211;45.040;38.788;2022-10-16T12:08:59;21.57;59.58
66401;HTU21D;53211;45.040;38.788;2022-10-16T12:14:07;21.46;59.53
66401;HTU21D;53211;45.040;38.788;2022-10-16T12:16:56;21.40;59.65
66401;HTU21D;53211;45.040;38.788;2022-10-16T12:19:26;21.34;59.58
66401;HTU21D;53211;45.040;38.788;2022-10-16T12:21:54;21.31;59.64
66401;HTU21D;53211;45.040;38.788;2022-10-16T12:26:56;21.22;59.88
66401;HTU21D;53211;45.040;38.788;2022-10-16T12:29:33;21.22;59.95
66401;HTU21D;53211;45.040;38.788;2022-10-16T12:32:00;21.22;59.90
66401;HTU21D;53211;45.040;38.788;2022-10-16T12:34:39;21.19;59.77
66401;HTU21D;53211;45.040;38.788;2022-10-16T12:39:38;21.09;59.73
66401;HTU21D;53211;45.040;38.788;2022-10-16T12:42:18;21.07;59.73
66401;HTU21D;53211;45.040;38.788;2022-10-16T12:44:45;21.02;59.80
66401;HTU21D;53211;45.040;38.788;2022-10-16T12:47:36;20.98;59.88
66401;HTU21D;53211;45.040;38.788;2022-10-16T12:50:03;20.93;59.89
66401;HTU21D;53211;45.040;38.788;2022-10-16T12:52:36;20.88;59.93
66401;HTU21D;53211;45.040;38.788;2022-10-16T12:55:17;20.80;59.93
66401;HTU21D;53211;45.040;38.788;2022-10-16T13:00:56;20.60;60.12
66401;HTU21D;53211;45.040;38.788;2022-10-16T13:03:40;20.51;60.25
66401;HTU21D;53211;45.040;38.788;2022-10-16T13:06:14;20.43;60.36
66401;HTU21D;53211;45.040;38.788;2022-10-16T13:08:44;20.37;60.47
66401;HTU21D;53211;45.040;38.788;2022-10-16T13:14:14;20.28;60.56
66401;HTU21D;53211;45.040;38.788;2022-10-16T13:27:46;19.88;61.12
66401;HTU21D;53211;45.040;38.788;2022-10-16T13:30:26;19.83;61.16
66401;HTU21D;53211;45.040;38.788;2022-10-16T13:32:56;19.77;61.27
66401;HTU21D;53211;45.040;38.788;2022-10-16T13:35:30;19.71;61.34
66401;HTU21D;53211;45.040;38.788;2022-10-16T13:40:52;19.58;61.50
66401;HTU21D;53211;45.040;38.788;2022-10-16T13:43:20;19.53;61.60
66401;HTU21D;53211;45.040;38.788;2022-10-16T13:45:56;19.44;61.73
66401;HTU21D;53211;45.040;38.788;2022-10-16T13:48:25;19.37;61.83
66401;HTU21D;53211;45.040;38.788;2022-10-16T13:51:12;19.27;61.98
66401;HTU21D;53211;45.040;38.788;2022-10-16T13:53:39;19.22;62.07
66401;HTU21D;53211;45.040;38.788;2022-10-16T13:56:10;19.13;62.18
66401;HTU21D;53211;45.040;38.788;2022-10-16T13:58:36;19.05;62.27
66401;HTU21D;53211;45.040;38.788;2022-10-16T14:01:03;18.98;62.36
66401;HTU21D;53211;45.040;38.788;2022-10-16T14:03:32;18.89;62.44
66401;HTU21D;53211;45.040;38.788;2022-10-16T14:06:04;18.84;62.51
66401;HTU21D;53211;45.040;38.788;2022-10-16T14:08:34;18.77;62.57
66401;HTU21D;53211;45.040;38.788;2022-10-16T14:11:01;18.70;62.64
66401;HTU21D;53211;45.040;38.788;2022-10-16T14:13:36;18.64;62.68
66401;HTU21D;53211;45.040;38.788;2022-10-16T14:16:07;18.55;62.74
66401;HTU21D;53211;45.040;38.788;2022-10-16T14:18:35;18.49;62.78
66401;HTU21D;53211;45.040;38.788;2022-10-16T14:21:07;18.39;62.85
66401;HTU21D;53211;45.040;38.788;2022-10-16T14:23:38;18.33;62.89
66401;HTU21D;53211;45.040;38.788;2022-10-16T14:28:36;18.19;63.01
66401;HTU21D;53211;45.040;38.788;2022-10-16T14:31:25;18.10;63.10
66401;HTU21D;53211;45.040;38.788;2022-10-16T14:33:51;18.04;63.14
66401;HTU21D;53211;45.040;38.788;2022-10-16T14:36:17;17.98;63.22
66401;HTU21D;53211;45.040;38.788;2022-10-16T14:39:01;17.92;63.27
66401;HTU21D;53211;45.040;38.788;2022-10-16T14:41:31;17.87;63.34
66401;HTU21D;53211;45.040;38.788;2022-10-16T14:44:05;17.81;63.37
66401;HTU21D;53211;45.040;38.788;2022-10-16T14:46:40;17.75;63.40
66401;HTU21D;53211;45.040;38.788;2022-10-16T14:51:35;17.66;63.59
66401;HTU21D;53211;45.040;38.788;2022-10-16T14:54:02;17.61;63.66
66401;HTU21D;53211;45.040;38.788;2022-10-16T14:56:31;17.58;63.69
66401;HTU21D;53211;45.040;38.788;2022-10-16T14:58:59;17.53;63.73
66401;HTU21D;53211;45.040;38.788;2022-10-16T15:01:26;17.49;63.80
66401;HTU21D;53211;45.040;38.788;2022-10-16T15:03:52;17.45;63.88
66401;HTU21D;53211;45.040;38.788;2022-10-16T15:06:21;17.40;63.97
66401;HTU21D;53211;45.040;38.788;2022-10-16T15:08:47;17.38;64.00
66401;HTU21D;53211;45.040;38.788;2022-10-16T15:11:16;17.35;64.10
66401;HTU21D;53211;45.040;38.788;2022-10-16T15:13:42;17.32;64.10
66401;HTU21D;53211;45.040;38.788;2022-10-16T15:16:14;17.29;64.22
66401;HTU21D;53211;45.040;38.788;2022-10-16T15:18:40;17.23;64.25
66401;HTU21D;53211;45.040;38.788;2022-10-16T15:21:07;17.22;64.37
66401;HTU21D;53211;45.040;38.788;2022-10-16T15:23:33;17.17;64.39
66401;HTU21D;53211;45.040;38.788;2022-10-16T15:25:59;17.14;64.43
66401;HTU21D;53211;45.040;38.788;2022-10-16T15:28:25;17.10;64.53
66401;HTU21D;53211;45.040;38.788;2022-10-16T15:30:53;17.08;64.60
66401;HTU21D;53211;45.040;38.788;2022-10-16T15:33:25;17.05;64.66
66401;HTU21D;53211;45.040;38.788;2022-10-16T15:35:58;17.00;64.68
66401;HTU21D;53211;45.040;38.788;2022-10-16T15:38:25;16.94;64.69
66401;HTU21D;53211;45.040;38.788;2022-10-16T15:40:51;16.93;64.82
66401;HTU21D;53211;45.040;38.788;2022-10-16T15:43:17;16.90;64.95
66401;HTU21D;53211;45.040;38.788;2022-10-16T15:45:58;16.87;64.97
66401;HTU21D;53211;45.040;38.788;2022-10-16T15:48:25;16.85;65.01
66401;HTU21D;53211;45.040;38.788;2022-10-16T15:50:51;16.82;65.08
66401;HTU21D;53211;45.040;38.788;2022-10-16T15:53:17;16.79;65.08
66401;HTU21D;53211;45.040;38.788;2022-10-16T15:55:43;16.79;65.09
66401;HTU21D;53211;45.040;38.788;2022-10-16T15:58:09;16.75;65.14
66401;HTU21D;53211;45.040;38.788;2022-10-16T16:00:35;16.74;65.20
66401;HTU21D;53211;45.040;38.788;2022-10-16T16:03:02;16.73;65.18
66401;HTU21D;53211;45.040;38.788;2022-10-16T16:05:28;16.71;65.22
66401;HTU21D;53211;45.040;38.788;2022-10-16T16:07:55;16.71;65.24
66401;HTU21D;53211;45.040;38.788;2022-10-16T16:10:21;16.69;65.31
66401;HTU21D;53211;45.040;38.788;2022-10-16T16:12:48;16.67;65.31
66401;HTU21D;53211;45.040;38.788;2022-10-16T16:15:20;16.66;65.39
66401;HTU21D;53211;45.040;38.788;2022-10-16T16:17:46;16.65;65.40
66401;HTU21D;53211;45.040;38.788;2022-10-16T16:20:12;16.64;65.49
66401;HTU21D;53211;45.040;38.788;2022-10-16T16:22:39;16.64;65.57
66401;HTU21D;53211;45.040;38.788;2022-10-16T16:25:06;16.63;65.57
66401;HTU21D;53211;45.040;38.788;2022-10-16T16:27:32;16.63;65.72
66401;HTU21D;53211;45.040;38.788;2022-10-16T16:30:09;16.62;65.72
66401;HTU21D;53211;45.040;38.788;2022-10-16T16:32:35;16.62;65.68
66401;HTU21D;53211;45.040;38.788;2022-10-16T16:35:02;16.61;65.72
66401;HTU21D;53211;45.040;38.788;2022-10-16T16:37:28;16.61;65.75
66401;HTU21D;53211;45.040;38.788;2022-10-16T16:39:55;16.59;65.93
66401;HTU21D;53211;45.040;38.788;2022-10-16T16:42:25;16.57;65.97
66401;HTU21D;53211;45.040;38.788;2022-10-16T16:44:52;16.57;66.07
66401;HTU21D;53211;45.040;38.788;2022-10-16T16:47:18;16.58;66.04
66401;HTU21D;53211;45.040;38.788;2022-10-16T16:49:45;16.58;66.18
66401;HTU21D;53211;45.040;38.788;2022-10-16T16:52:13;16.57;66.11
66401;HTU21D;53211;45.040;38.788;2022-10-16T16:54:39;16.57;66.13
66401;HTU21D;53211;45.040;38.788;2022-10-16T16:57:05;16.56;66.21
66401;HTU21D;53211;45.040;38.788;2022-10-16T16:59:31;16.56;66.25
66401;HTU21D;53211;45.040;38.788;2022-10-16T17:01:59;16.55;66.28
66401;HTU21D;53211;45.040;38.788;2022-10-16T17:04:26;16.55;66.33
66401;HTU21D;53211;45.040;38.788;2022-10-16T17:06:54;16.54;66.30
66401;HTU21D;53211;45.040;38.788;2022-10-16T17:09:21;16.52;66.30
66401;HTU21D;53211;45.040;38.788;2022-10-16T17:11:47;16.55;66.54
66401;HTU21D;53211;45.040;38.788;2022-10-16T17:14:14;16.54;66.63
66401;HTU21D;53211;45.040;38.788;2022-10-16T17:16:41;16.54;66.63
66401;HTU21D;53211;45.040;38.788;2022-10-16T17:19:16;16.55;66.70
66401;HTU21D;53211;45.040;38.788;2022-10-16T17:21:43;16.54;66.77
66401;HTU21D;53211;45.040;38.788;2022-10-16T17:24:09;16.56;66.84
66401;HTU21D;53211;45.040;38.788;2022-10-16T17:26:36;16.54;66.85